TimeEST,TemperatureF,Dew PointF,Humidity,Sea Level PressureIn,VisibilityMPH,Wind Direction,Wind SpeedMPH,Gust SpeedMPH,PrecipitationIn,Events,Conditions,WindDirDegrees,DateUTC
12:53 AM,30.9,25.0,79,30.53,7.0,Calm,Calm,-,N/A,,Clear,0,2012-11-17 05:53:00
1:53 AM,30.0,24.1,79,30.54,6.0,Calm,Calm,-,N/A,,Haze,0,2012-11-17 06:53:00
2:53 AM,30.0,25.0,82,30.54,4.0,Calm,Calm,-,N/A,,Haze,0,2012-11-17 07:53:00
3:53 AM,30.0,25.0,82,30.55,4.0,Calm,Calm,-,N/A,,Haze,0,2012-11-17 08:53:00
4:53 AM,28.9,23.0,78,30.56,6.0,Calm,Calm,-,N/A,,Haze,0,2012-11-17 09:53:00
5:45 AM,28.4,23.0,80,30.56,5.0,Calm,Calm,-,N/A,,Haze,0,2012-11-17 10:45:00
5:53 AM,28.0,23.0,81,30.58,4.0,Calm,Calm,-,N/A,,Haze,0,2012-11-17 10:53:00
6:53 AM,26.1,21.0,81,30.60,6.0,North,4.6,-,N/A,,Haze,360,2012-11-17 11:53:00
7:01 AM,26.6,21.2,80,30.58,5.0,Calm,Calm,-,N/A,,Mostly Cloudy,0,2012-11-17 12:01:00
7:20 AM,26.6,21.2,80,30.59,4.0,Calm,Calm,-,N/A,,Haze,0,2012-11-17 12:20:00
7:30 AM,26.6,21.2,80,30.59,2.0,Calm,Calm,-,N/A,,Haze,0,2012-11-17 12:30:00
7:53 AM,27.0,21.9,81,30.61,2.0,Calm,Calm,-,N/A,,Haze,0,2012-11-17 12:53:00
8:03 AM,28.4,24.8,86,30.60,1.5,Calm,Calm,-,N/A,,Clear,0,2012-11-17 13:03:00
8:11 AM,30.2,24.8,80,30.60,4.0,Calm,Calm,-,N/A,,Haze,0,2012-11-17 13:11:00
8:53 AM,35.1,28.9,78,30.62,4.0,Calm,Calm,-,N/A,,Haze,0,2012-11-17 13:53:00
9:53 AM,42.1,34.0,73,30.63,3.0,Calm,Calm,-,N/A,,Haze,0,2012-11-17 14:53:00
10:53 AM,48.9,33.1,54,30.63,8.0,SE,3.5,-,N/A,,Clear,140,2012-11-17 15:53:00
11:53 AM,52.0,32.0,47,30.61,10.0,SSE,5.8,-,N/A,,Clear,160,2012-11-17 16:53:00
12:53 PM,54.0,32.0,43,30.59,10.0,SE,8.1,-,N/A,,Clear,140,2012-11-17 17:53:00
1:53 PM,55.0,34.0,45,30.58,10.0,Variable,6.9,-,N/A,,Clear,0,2012-11-17 18:53:00
2:53 PM,54.0,33.1,45,30.57,10.0,SSE,5.8,-,N/A,,Clear,160,2012-11-17 19:53:00
3:53 PM,53.1,33.1,47,30.57,10.0,SE,5.8,-,N/A,,Clear,140,2012-11-17 20:53:00
4:53 PM,48.0,34.0,58,30.57,10.0,SE,5.8,-,N/A,,Clear,130,2012-11-17 21:53:00
5:53 PM,45.0,34.0,65,30.57,8.0,SE,4.6,-,N/A,,Clear,130,2012-11-17 22:53:00
6:53 PM,39.9,32.0,73,30.58,6.0,Calm,Calm,-,N/A,,Haze,0,2012-11-17 23:53:00
7:53 PM,35.1,28.9,78,30.58,5.0,Calm,Calm,-,N/A,,Haze,0,2012-11-18 00:53:00
8:53 PM,36.0,30.0,79,30.57,4.0,SE,3.5,-,N/A,,Haze,130,2012-11-18 01:53:00
9:53 PM,30.9,26.1,82,30.57,3.0,Calm,Calm,-,N/A,,Haze,0,2012-11-18 02:53:00
10:53 PM,32.0,27.0,82,30.57,3.0,NE,3.5,-,N/A,,Haze,50,2012-11-18 03:53:00
11:17 PM,30.2,24.8,80,30.56,2.5,North,3.5,-,N/A,,Haze,10,2012-11-18 04:17:00
11:36 PM,30.2,24.8,80,30.56,3.0,Calm,Calm,-,N/A,,Haze,0,2012-11-18 04:36:00
11:53 PM,30.0,26.1,85,30.57,2.5,Calm,Calm,-,N/A,,Clear,0,2012-11-18 04:53:00